createdAt,value
2022-08-28T00:01:23.911Z,19.31
2022-08-28T00:03:50.621Z,19.38
2022-08-28T00:06:18.806Z,19.38
2022-08-28T00:08:46.561Z,19.43
2022-08-28T00:11:21.068Z,19.36
2022-08-28T00:13:48.549Z,19.39
2022-08-28T00:16:15.440Z,19.39
2022-08-28T00:18:42.402Z,19.37
2022-08-28T00:21:10.063Z,19.39
2022-08-28T00:23:42.852Z,19.33
2022-08-28T00:26:31.749Z,19.33
2022-08-28T00:28:58.520Z,19.26
2022-08-28T00:31:25.302Z,19.28
2022-08-28T00:33:52.054Z,19.22
2022-08-28T00:36:19.590Z,19.15
2022-08-28T00:38:46.203Z,19.25
2022-08-28T00:41:13.186Z,19.28
2022-08-28T00:43:43.311Z,19.31
2022-08-28T00:46:14.460Z,19.29
2022-08-28T00:48:41.497Z,19.30
2022-08-28T00:51:28.638Z,19.29
2022-08-28T00:53:58.955Z,19.24
2022-08-28T00:56:27.560Z,19.25
2022-08-28T00:58:56.795Z,19.25
2022-08-28T01:01:24.271Z,19.24
2022-08-28T01:03:51.060Z,19.26
2022-08-28T01:06:20.516Z,19.26
2022-08-28T01:08:50.518Z,19.25
2022-08-28T01:11:21.618Z,19.27
2022-08-28T01:13:49.714Z,19.25
2022-08-28T01:16:19.231Z,19.29
2022-08-28T01:18:46.879Z,19.33
2022-08-28T01:21:22.258Z,19.30
2022-08-28T01:24:04.967Z,19.26
2022-08-28T01:26:32.371Z,19.27
2022-08-28T01:29:00.685Z,19.28
2022-08-28T01:31:31.036Z,19.28
2022-08-28T01:33:59.292Z,19.24
2022-08-28T01:36:26.422Z,19.29
2022-08-28T01:38:58.994Z,19.29
2022-08-28T01:41:25.686Z,19.23
2022-08-28T01:43:53.805Z,19.14
2022-08-28T01:46:21.014Z,19.06
2022-08-28T01:48:48.232Z,19.09
2022-08-28T01:51:15.157Z,19.16
2022-08-28T01:53:45.006Z,19.16
2022-08-28T01:56:15.090Z,19.11
2022-08-28T01:58:42.227Z,19.06
2022-08-28T02:01:11.152Z,19.02
2022-08-28T02:03:38.674Z,19.04
2022-08-28T02:06:06.072Z,19.01
2022-08-28T02:08:35.320Z,18.93
2022-08-28T02:11:02.290Z,18.88
2022-08-28T02:13:28.987Z,18.90
2022-08-28T02:15:57.022Z,18.87
2022-08-28T02:18:26.074Z,18.80
2022-08-28T02:20:52.778Z,18.77
2022-08-28T02:23:19.466Z,18.77
2022-08-28T02:25:47.688Z,18.77
2022-08-28T02:28:17.658Z,18.78
2022-08-28T02:30:44.727Z,18.80
2022-08-28T02:33:11.418Z,18.79
2022-08-28T02:35:40.235Z,18.74
2022-08-28T02:38:07.066Z,18.69
2022-08-28T02:40:33.889Z,18.76
2022-08-28T02:43:00.578Z,18.79
2022-08-28T02:45:30.210Z,18.79
2022-08-28T02:47:57.352Z,18.84
2022-08-28T02:50:24.758Z,18.86
2022-08-28T02:52:51.901Z,18.88
2022-08-28T02:55:19.738Z,18.93
2022-08-28T02:57:47.718Z,18.96
2022-08-28T03:00:19.906Z,18.99
2022-08-28T03:02:47.314Z,19.06
2022-08-28T03:05:17.326Z,19.11
2022-08-28T03:07:44.216Z,19.12
2022-08-28T03:10:11.319Z,19.14
2022-08-28T03:12:38.281Z,19.25
2022-08-28T03:15:07.516Z,19.31
2022-08-28T03:17:35.051Z,19.36
2022-08-28T03:20:01.742Z,19.38
2022-08-28T03:22:46.861Z,19.38
2022-08-28T03:25:13.616Z,19.44
2022-08-28T03:27:40.243Z,19.38
2022-08-28T03:30:07.950Z,19.42
2022-08-28T03:32:35.228Z,19.40
2022-08-28T03:35:03.316Z,19.37
2022-08-28T03:37:32.740Z,19.35
2022-08-28T03:40:00.640Z,19.31
2022-08-28T03:42:27.397Z,19.26
2022-08-28T03:44:54.445Z,19.23
2022-08-28T03:47:21.063Z,19.25
2022-08-28T03:49:53.658Z,19.29
2022-08-28T03:52:20.591Z,19.29
2022-08-28T03:54:48.062Z,19.27
2022-08-28T03:57:22.392Z,19.33
2022-08-28T03:59:51.415Z,19.32
2022-08-28T04:02:20.423Z,19.30
2022-08-28T04:04:48.899Z,19.31
2022-08-28T04:07:16.136Z,19.31
2022-08-28T04:09:43.080Z,19.26
2022-08-28T04:12:10.293Z,19.25
2022-08-28T04:14:37.446Z,19.22
2022-08-28T04:17:05.494Z,19.34
2022-08-28T04:19:34.141Z,19.28
2022-08-28T04:22:01.264Z,19.24
2022-08-28T04:24:27.986Z,19.29
2022-08-28T04:26:54.682Z,19.32
2022-08-28T04:29:22.947Z,19.27
2022-08-28T04:31:50.416Z,19.30
2022-08-28T04:34:17.928Z,19.32
2022-08-28T04:36:44.877Z,19.29
2022-08-28T04:39:11.781Z,19.28
2022-08-28T04:41:38.789Z,19.32
2022-08-28T04:44:06.493Z,19.33
2022-08-28T04:46:33.325Z,19.27
2022-08-28T04:49:00.693Z,19.33
2022-08-28T04:51:28.401Z,19.30
2022-08-28T04:53:55.135Z,19.25
2022-08-28T04:56:21.836Z,19.26
2022-08-28T04:58:48.501Z,19.28
2022-08-28T05:01:21.049Z,19.35
2022-08-28T05:03:52.658Z,19.37
2022-08-28T05:06:19.300Z,19.37
2022-08-28T05:08:48.028Z,19.35
2022-08-28T05:11:33.762Z,19.41
2022-08-28T05:14:11.577Z,19.44
2022-08-28T05:16:46.567Z,19.55
2022-08-28T05:19:14.731Z,19.68
2022-08-28T05:21:42.590Z,19.62
2022-08-28T05:24:09.880Z,19.61
2022-08-28T05:26:38.953Z,19.57
2022-08-28T05:29:08.023Z,19.55
2022-08-28T05:31:35.053Z,19.56
2022-08-28T05:34:02.964Z,19.62
2022-08-28T05:36:34.983Z,19.60
2022-08-28T05:39:05.287Z,19.50
2022-08-28T05:41:34.344Z,19.54
2022-08-28T05:44:04.714Z,19.64
2022-08-28T05:46:31.946Z,19.50
2022-08-28T05:49:00.440Z,19.45
2022-08-28T05:51:28.078Z,19.57
2022-08-28T05:53:57.555Z,19.53
2022-08-28T05:56:29.624Z,19.54
2022-08-28T05:58:57.632Z,19.60
2022-08-28T06:01:33.621Z,19.43
2022-08-28T06:04:02.528Z,19.62
2022-08-28T06:06:34.288Z,19.64
2022-08-28T06:09:11.748Z,19.57
2022-08-28T06:11:40.468Z,19.77
2022-08-28T06:14:13.598Z,19.74
2022-08-28T06:16:47.220Z,19.74
2022-08-28T06:19:14.430Z,19.76
2022-08-28T06:21:41.947Z,19.66
2022-08-28T06:24:10.822Z,19.58
2022-08-28T06:26:38.109Z,19.80
2022-08-28T06:29:08.535Z,20.05
2022-08-28T06:31:35.811Z,20.00
2022-08-28T06:34:04.508Z,20.03
2022-08-28T06:36:33.787Z,20.17
2022-08-28T06:39:02.719Z,20.18
2022-08-28T06:41:34.605Z,19.98
2022-08-28T06:44:02.930Z,20.01
2022-08-28T06:46:30.516Z,19.97
2022-08-28T06:48:57.338Z,19.90
2022-08-28T06:51:25.061Z,19.77
2022-08-28T06:53:52.470Z,19.90
2022-08-28T06:56:26.005Z,20.02
2022-08-28T06:58:58.075Z,20.07
2022-08-28T07:01:31.472Z,20.18
2022-08-28T07:04:08.612Z,20.02
2022-08-28T07:06:38.071Z,20.03
2022-08-28T07:09:07.195Z,19.99
2022-08-28T07:11:37.319Z,20.09
2022-08-28T07:14:04.827Z,20.22
2022-08-28T07:16:35.035Z,20.30
2022-08-28T07:19:04.767Z,20.31
2022-08-28T07:21:38.761Z,20.32
2022-08-28T07:24:10.439Z,20.34
2022-08-28T07:26:40.813Z,20.11
2022-08-28T07:29:10.867Z,20.17
2022-08-28T07:31:44.046Z,20.12
2022-08-28T07:34:13.515Z,20.23
2022-08-28T07:36:41.099Z,19.95
2022-08-28T07:39:09.044Z,20.00
2022-08-28T07:41:39.093Z,20.28
2022-08-28T07:44:26.857Z,20.28
2022-08-28T07:46:55.911Z,20.30
2022-08-28T07:49:23.542Z,20.25
2022-08-28T07:51:56.836Z,20.23
2022-08-28T07:54:23.856Z,20.25
2022-08-28T07:56:50.984Z,20.47
2022-08-28T07:59:19.402Z,20.50
2022-08-28T08:01:49.081Z,20.52
2022-08-28T08:04:16.612Z,20.57
2022-08-28T08:06:44.927Z,20.55
2022-08-28T08:09:17.996Z,20.55
2022-08-28T08:11:45.059Z,20.85
2022-08-28T08:14:15.813Z,21.19
2022-08-28T08:16:44.860Z,21.08
2022-08-28T08:19:20.291Z,21.01
2022-08-28T08:21:53.300Z,21.18
2022-08-28T08:24:26.684Z,20.67
2022-08-28T08:27:00.258Z,20.59
2022-08-28T08:29:31.419Z,20.75
2022-08-28T08:32:06.866Z,20.77
2022-08-28T08:34:36.716Z,21.05
2022-08-28T08:37:05.469Z,21.03
2022-08-28T08:39:33.839Z,20.97
2022-08-28T08:42:04.192Z,21.03
2022-08-28T08:44:40.828Z,20.94
2022-08-28T08:47:19.434Z,21.02
2022-08-28T08:49:57.112Z,20.94
2022-08-28T08:52:38.808Z,21.10
2022-08-28T08:55:23.066Z,20.58
2022-08-28T08:57:59.370Z,21.05
2022-08-28T09:00:26.575Z,21.32
2022-08-28T09:03:09.481Z,21.37
2022-08-28T09:05:46.699Z,21.07
2022-08-28T09:08:25.198Z,20.49
2022-08-28T09:11:00.765Z,20.46
2022-08-28T09:13:51.630Z,20.26
2022-08-28T09:16:29.346Z,20.33
2022-08-28T09:18:58.290Z,20.36
2022-08-28T09:21:29.392Z,20.36
2022-08-28T09:23:57.598Z,20.70
2022-08-28T09:26:25.471Z,20.46
2022-08-28T09:29:20.768Z,20.68
2022-08-28T09:31:50.425Z,21.05
2022-08-28T09:34:27.678Z,21.51
2022-08-28T09:36:56.334Z,20.88
2022-08-28T09:39:30.576Z,21.40
2022-08-28T09:42:40.896Z,21.55
2022-08-28T09:45:21.416Z,21.61
2022-08-28T09:47:56.673Z,21.37
2022-08-28T09:50:31.327Z,21.40
2022-08-28T09:53:08.831Z,21.52
2022-08-28T09:56:25.050Z,21.14
2022-08-28T09:59:02.846Z,20.28
2022-08-28T10:01:45.183Z,20.34
2022-08-28T10:04:20.891Z,20.88
2022-08-28T10:07:00.685Z,20.43
2022-08-28T10:09:46.845Z,20.02
2022-08-28T10:12:35.961Z,20.61
2022-08-28T10:15:30.651Z,20.89
2022-08-28T10:18:21.498Z,20.80
2022-08-28T10:21:36.015Z,21.33
2022-08-28T10:24:28.731Z,21.58
2022-08-28T10:27:21.346Z,21.85
2022-08-28T10:30:20.750Z,21.83
2022-08-28T10:33:11.902Z,21.54
2022-08-28T10:36:03.987Z,21.41
2022-08-28T10:38:30.827Z,21.47
2022-08-28T10:41:35.733Z,21.58
2022-08-28T10:44:05.316Z,21.78
2022-08-28T10:46:42.570Z,21.72
2022-08-28T10:49:30.034Z,21.64
2022-08-28T10:52:05.207Z,21.73
2022-08-28T10:54:53.203Z,21.96
2022-08-28T10:57:24.229Z,21.92
2022-08-28T10:59:54.069Z,21.16
2022-08-28T11:02:24.745Z,21.43
2022-08-28T11:04:58.208Z,21.35
2022-08-28T11:07:54.525Z,21.43
2022-08-28T11:10:23.745Z,21.19
2022-08-28T11:12:52.598Z,21.22
2022-08-28T11:15:36.456Z,21.38
2022-08-28T11:18:16.056Z,21.43
2022-08-28T11:21:09.963Z,21.58
2022-08-28T11:23:43.510Z,21.49
2022-08-28T11:26:14.746Z,21.31
2022-08-28T11:28:47.533Z,21.27
2022-08-28T11:31:14.257Z,21.15
2022-08-28T11:33:56.341Z,21.18
2022-08-28T11:36:23.001Z,21.16
2022-08-28T11:38:52.286Z,21.32
2022-08-28T11:41:22.414Z,21.30
2022-08-28T11:43:52.471Z,21.35
2022-08-28T11:46:33.784Z,21.57
2022-08-28T11:49:03.620Z,21.87
2022-08-28T11:51:48.686Z,21.41
2022-08-28T11:54:50.689Z,21.34
2022-08-28T11:57:20.280Z,21.25
2022-08-28T11:59:55.906Z,21.12
2022-08-28T12:02:46.965Z,21.60
2022-08-28T12:05:16.774Z,21.75
2022-08-28T12:07:51.396Z,21.96
2022-08-28T12:10:27.468Z,21.92
2022-08-28T12:13:39.015Z,21.71
2022-08-28T12:16:07.642Z,22.06
2022-08-28T12:18:59.070Z,22.37
2022-08-28T12:21:28.833Z,22.56
2022-08-28T12:24:05.364Z,21.75
2022-08-28T12:26:39.920Z,21.69
2022-08-28T12:29:34.878Z,22.22
2022-08-28T12:32:18.639Z,22.19
2022-08-28T12:34:53.140Z,21.90
2022-08-28T12:37:24.190Z,22.05
2022-08-28T12:39:51.783Z,21.91
2022-08-28T12:42:20.247Z,22.23
2022-08-28T12:44:51.672Z,22.54
2022-08-28T12:47:22.844Z,22.22
2022-08-28T12:49:49.690Z,22.24
2022-08-28T12:52:21.037Z,21.78
2022-08-28T12:54:50.284Z,21.32
2022-08-28T12:57:20.515Z,21.57
2022-08-28T12:59:50.419Z,21.57
2022-08-28T13:02:34.224Z,21.59
2022-08-28T13:05:09.862Z,22.08
2022-08-28T13:07:49.610Z,22.30
2022-08-28T13:10:21.563Z,22.29
2022-08-28T13:13:05.870Z,22.49
2022-08-28T13:15:45.938Z,22.96
2022-08-28T13:18:44.459Z,22.15
2022-08-28T13:21:17.293Z,22.61
2022-08-28T13:24:01.704Z,21.50
2022-08-28T13:26:33.827Z,22.15
2022-08-28T13:29:26.880Z,21.84
2022-08-28T13:32:01.983Z,21.78
2022-08-28T13:34:31.518Z,22.27
2022-08-28T13:37:20.198Z,22.17
2022-08-28T13:39:47.750Z,22.37
2022-08-28T13:42:17.966Z,22.40
2022-08-28T13:44:56.767Z,22.50
2022-08-28T13:47:23.433Z,22.07
2022-08-28T13:49:50.126Z,22.45
2022-08-28T13:52:19.345Z,22.36
2022-08-28T13:54:46.843Z,21.71
2022-08-28T13:57:14.586Z,21.49
2022-08-28T13:59:41.776Z,22.25
2022-08-28T14:02:31.679Z,21.54
2022-08-28T14:04:58.720Z,21.91
2022-08-28T14:07:25.478Z,22.07
2022-08-28T14:09:56.286Z,22.17
2022-08-28T14:12:33.028Z,22.38
2022-08-28T14:15:03.489Z,22.55
2022-08-28T14:17:30.220Z,22.70
2022-08-28T14:19:58.872Z,22.61
2022-08-28T14:22:25.717Z,22.51
2022-08-28T14:24:55.973Z,22.57
2022-08-28T14:27:22.848Z,22.25
2022-08-28T14:29:49.629Z,21.86
2022-08-28T14:32:25.052Z,22.29
2022-08-28T14:34:52.986Z,22.52
2022-08-28T14:37:20.493Z,23.20
2022-08-28T14:39:48.279Z,22.95
2022-08-28T14:42:15.094Z,22.59
2022-08-28T14:44:50.510Z,22.60
2022-08-28T14:47:18.282Z,22.37
2022-08-28T14:49:44.986Z,22.44
2022-08-28T14:52:17.697Z,22.31
2022-08-28T14:54:44.464Z,22.63
2022-08-28T14:57:13.768Z,22.32
2022-08-28T14:59:40.843Z,22.66
2022-08-28T15:02:08.195Z,22.78
2022-08-28T15:04:37.855Z,22.42
2022-08-28T15:07:16.770Z,22.11
2022-08-28T15:09:43.821Z,21.90
2022-08-28T15:12:11.487Z,22.01
2022-08-28T15:14:39.578Z,21.94
2022-08-28T15:17:08.000Z,22.21
2022-08-28T15:19:36.990Z,22.29
2022-08-28T15:22:06.419Z,22.16
2022-08-28T15:24:34.611Z,21.91
2022-08-28T15:27:06.511Z,22.37
2022-08-28T15:29:34.278Z,22.19
2022-08-28T15:32:00.998Z,22.10
2022-08-28T15:34:28.516Z,22.20
2022-08-28T15:36:56.782Z,22.12
2022-08-28T15:39:44.375Z,22.25
2022-08-28T15:42:11.968Z,22.15
2022-08-28T15:44:39.280Z,22.44
2022-08-28T15:47:07.056Z,22.30
2022-08-28T15:49:43.692Z,22.30
2022-08-28T15:52:19.006Z,22.05
2022-08-28T15:54:46.023Z,22.03
2022-08-28T15:57:12.799Z,22.07
2022-08-28T15:59:48.815Z,21.61
2022-08-28T16:02:23.486Z,21.72
2022-08-28T16:04:53.574Z,21.63
2022-08-28T16:07:22.162Z,21.31
2022-08-28T16:09:49.156Z,21.15
2022-08-28T16:12:17.303Z,20.90
2022-08-28T16:14:44.274Z,20.72
2022-08-28T16:17:11.568Z,20.70
2022-08-28T16:19:40.207Z,20.68
2022-08-28T16:22:07.705Z,20.71
2022-08-28T16:24:34.482Z,20.57
2022-08-28T16:27:02.585Z,20.70
2022-08-28T16:29:34.100Z,20.90
2022-08-28T16:32:02.360Z,20.98
2022-08-28T16:34:32.531Z,20.97
2022-08-28T16:37:00.204Z,20.96
2022-08-28T16:39:27.458Z,20.93
2022-08-28T16:41:56.587Z,20.80
2022-08-28T16:44:28.179Z,20.84
2022-08-28T16:46:55.586Z,20.96
2022-08-28T16:49:25.033Z,20.83
2022-08-28T16:51:51.673Z,20.83
2022-08-28T16:54:19.111Z,20.89
2022-08-28T16:56:46.800Z,20.92
2022-08-28T16:59:17.501Z,20.84
2022-08-28T17:01:44.821Z,20.74
2022-08-28T17:04:12.229Z,20.73
2022-08-28T17:06:39.973Z,20.68
2022-08-28T17:09:06.792Z,20.58
2022-08-28T17:11:33.617Z,20.64
2022-08-28T17:14:00.394Z,20.64
2022-08-28T17:16:29.721Z,20.64
2022-08-28T17:18:56.647Z,20.68
2022-08-28T17:21:42.403Z,20.47
2022-08-28T17:24:12.444Z,20.54
2022-08-28T17:26:40.626Z,20.45
2022-08-28T17:29:07.405Z,20.38
2022-08-28T17:31:41.227Z,20.44
2022-08-28T17:34:08.141Z,20.48
2022-08-28T17:36:39.730Z,20.58
2022-08-28T17:39:13.170Z,20.49
2022-08-28T17:41:40.727Z,20.44
2022-08-28T17:44:08.001Z,20.45
2022-08-28T17:46:38.111Z,20.39
2022-08-28T17:49:06.942Z,20.41
2022-08-28T17:51:43.413Z,20.51
2022-08-28T17:54:16.696Z,20.57
2022-08-28T17:56:43.847Z,20.45
2022-08-28T17:59:11.581Z,20.16
2022-08-28T18:01:42.098Z,20.10
2022-08-28T18:04:09.057Z,20.18
2022-08-28T18:06:36.016Z,20.24
2022-08-28T18:09:03.671Z,20.08
2022-08-28T18:11:30.402Z,20.40
2022-08-28T18:14:00.759Z,20.44
2022-08-28T18:16:31.385Z,20.44
2022-08-28T18:18:59.649Z,20.24
2022-08-28T18:21:26.618Z,20.25
2022-08-28T18:23:53.264Z,20.27
2022-08-28T18:26:20.388Z,20.28
2022-08-28T18:28:48.981Z,20.08
2022-08-28T18:31:21.156Z,20.03
2022-08-28T18:33:56.535Z,20.20
2022-08-28T18:36:34.191Z,20.02
2022-08-28T18:39:02.413Z,20.04
2022-08-28T18:41:41.631Z,20.09
2022-08-28T18:44:11.844Z,20.20
2022-08-28T18:46:41.649Z,20.22
2022-08-28T18:49:14.513Z,20.21
2022-08-28T18:51:47.943Z,20.01
2022-08-28T18:54:22.260Z,20.01
2022-08-28T18:56:50.401Z,20.02
2022-08-28T18:59:23.003Z,20.19
2022-08-28T19:01:49.839Z,19.99
2022-08-28T19:04:22.790Z,20.03
2022-08-28T19:06:54.667Z,20.05
2022-08-28T19:09:32.474Z,19.95
2022-08-28T19:12:01.430Z,20.06
2022-08-28T19:14:30.784Z,19.88
2022-08-28T19:16:57.430Z,19.99
2022-08-28T19:19:24.308Z,20.09
2022-08-28T19:21:54.014Z,19.95
2022-08-28T19:24:22.412Z,20.12
2022-08-28T19:26:49.012Z,19.89
2022-08-28T19:29:17.853Z,19.78
2022-08-28T19:31:44.689Z,19.85
2022-08-28T19:34:16.837Z,19.78
2022-08-28T19:36:55.270Z,19.59
2022-08-28T19:39:28.017Z,19.87
2022-08-28T19:42:00.702Z,19.89
2022-08-28T19:44:29.874Z,19.78
2022-08-28T19:46:56.682Z,19.99
2022-08-28T19:49:26.650Z,20.00
2022-08-28T19:51:55.469Z,20.05
2022-08-28T19:54:25.077Z,20.14
2022-08-28T19:56:52.108Z,19.98
2022-08-28T19:59:18.787Z,19.53
2022-08-28T20:01:46.554Z,19.76
2022-08-28T20:04:17.412Z,19.91
2022-08-28T20:06:45.390Z,19.77
2022-08-28T20:09:13.172Z,19.45
2022-08-28T20:11:42.308Z,19.38
2022-08-28T20:14:09.021Z,19.57
2022-08-28T20:16:38.839Z,19.90
2022-08-28T20:19:07.828Z,19.78
2022-08-28T20:21:37.126Z,19.90
2022-08-28T20:24:12.840Z,19.95
2022-08-28T20:26:40.228Z,19.95
2022-08-28T20:29:08.467Z,19.66
2022-08-28T20:31:40.589Z,19.90
2022-08-28T20:34:09.167Z,19.97
2022-08-28T20:36:38.572Z,19.45
2022-08-28T20:39:07.343Z,19.38
2022-08-28T20:41:35.956Z,19.42
2022-08-28T20:44:07.799Z,19.37
2022-08-28T20:46:40.442Z,19.17
2022-08-28T20:49:09.061Z,19.02
2022-08-28T20:51:53.674Z,18.97
2022-08-28T20:54:22.202Z,18.72
2022-08-28T20:56:50.665Z,19.03
2022-08-28T20:59:18.240Z,18.77
2022-08-28T21:01:45.155Z,18.83
2022-08-28T21:04:14.449Z,18.99
2022-08-28T21:06:41.590Z,18.75
2022-08-28T21:09:08.252Z,19.09
2022-08-28T21:11:34.871Z,19.32
2022-08-28T21:14:05.778Z,19.34
2022-08-28T21:16:35.435Z,19.43
2022-08-28T21:19:16.119Z,19.48
2022-08-28T21:21:46.415Z,19.55
2022-08-28T21:24:16.598Z,19.54
2022-08-28T21:26:45.607Z,19.62
2022-08-28T21:29:17.611Z,19.48
2022-08-28T21:31:45.046Z,19.39
2022-08-28T21:34:12.412Z,19.54
2022-08-28T21:36:46.911Z,19.65
2022-08-28T21:39:17.408Z,19.60
2022-08-28T21:41:44.052Z,19.63
2022-08-28T21:44:10.991Z,19.69
2022-08-28T21:46:37.899Z,19.68
2022-08-28T21:49:04.895Z,19.74
2022-08-28T21:51:33.639Z,19.73
2022-08-28T21:54:00.288Z,19.69
2022-08-28T21:56:27.828Z,19.76
2022-08-28T21:58:55.804Z,19.76
2022-08-28T22:01:26.514Z,19.76
2022-08-28T22:03:55.037Z,19.72
2022-08-28T22:06:23.779Z,19.73
2022-08-28T22:08:54.639Z,19.76
2022-08-28T22:11:25.575Z,19.73
2022-08-28T22:13:54.643Z,19.74
2022-08-28T22:16:21.952Z,19.80
2022-08-28T22:18:48.669Z,19.93
2022-08-28T22:21:35.937Z,19.97
2022-08-28T22:24:03.039Z,19.99
2022-08-28T22:26:29.807Z,19.90
2022-08-28T22:28:57.422Z,19.81
2022-08-28T22:31:25.123Z,19.61
2022-08-28T22:33:52.272Z,19.51
2022-08-28T22:36:20.225Z,19.40
2022-08-28T22:38:53.237Z,19.41
2022-08-28T22:41:20.594Z,19.53
2022-08-28T22:43:51.057Z,19.59
2022-08-28T22:46:18.919Z,19.72
2022-08-28T22:48:46.049Z,19.73
2022-08-28T22:51:15.121Z,19.77
2022-08-28T22:53:43.664Z,19.65
2022-08-28T22:56:11.711Z,19.57
2022-08-28T22:58:41.326Z,19.59
2022-08-28T23:01:12.919Z,19.60
2022-08-28T23:03:41.312Z,19.61
2022-08-28T23:06:08.209Z,19.65
2022-08-28T23:08:35.285Z,19.68
2022-08-28T23:11:02.484Z,19.74
2022-08-28T23:13:31.135Z,19.80
2022-08-28T23:15:58.212Z,19.77
2022-08-28T23:18:27.715Z,19.57
2022-08-28T23:20:55.227Z,19.61
2022-08-28T23:23:23.409Z,19.55
2022-08-28T23:25:50.566Z,19.70
2022-08-28T23:28:17.994Z,19.71
2022-08-28T23:30:48.608Z,19.71
2022-08-28T23:33:23.698Z,19.67
2022-08-28T23:35:52.083Z,19.75
2022-08-28T23:38:18.819Z,19.78
2022-08-28T23:40:46.265Z,19.81
2022-08-28T23:43:12.927Z,19.79
2022-08-28T23:45:42.122Z,19.80
2022-08-28T23:48:09.646Z,19.83
2022-08-28T23:50:40.813Z,19.78
2022-08-28T23:53:08.678Z,19.68
2022-08-28T23:55:36.776Z,19.61
2022-08-28T23:58:04.050Z,19.59
